sensor_id;sensor_type;location;lat;lon;timestamp;temperature;humidity
2391;DHT22;22957;50.824;4.360;2022-10-16T00:01:19;16.10;99.90
2391;DHT22;22957;50.824;4.360;2022-10-16T00:03:45;15.90;99.90
2391;DHT22;22957;50.824;4.360;2022-10-16T00:06:13;16.00;99.90
2391;DHT22;22957;50.824;4.360;2022-10-16T00:08:39;15.80;99.90
2391;DHT22;22957;50.824;4.360;2022-10-16T00:11:09;16.20;99.90
2391;DHT22;22957;50.824;4.360;2022-10-16T00:13:36;16.20;99.90
2391;DHT22;22957;50.824;4.360;2022-10-16T00:16:03;15.90;99.90
2391;DHT22;22957;50.824;4.360;2022-10-16T00:18:29;15.90;99.90
2391;DHT22;22957;50.824;4.360;2022-10-16T00:20:55;15.90;99.90
2391;DHT22;22957;50.824;4.360;2022-10-16T00:23:20;16.20;99.90
2391;DHT22;22957;50.824;4.360;2022-10-16T00:26:01;16.10;99.90
2391;DHT22;22957;50.824;4.360;2022-10-16T00:28:28;15.80;99.90
2391;DHT22;22957;50.824;4.360;2022-10-16T00:30:53;15.90;99.90
2391;DHT22;22957;50.824;4.360;2022-10-16T00:33:20;16.00;99.90
2391;DHT22;22957;50.824;4.360;2022-10-16T00:35:46;16.00;99.90
2391;DHT22;22957;50.824;4.360;2022-10-16T00:38:11;16.00;99.90
2391;DHT22;22957;50.824;4.360;2022-10-16T00:40:37;16.10;99.90
2391;DHT22;22957;50.824;4.360;2022-10-16T00:43:04;16.10;99.90
2391;DHT22;22957;50.824;4.360;2022-10-16T00:45:34;15.80;99.90
2391;DHT22;22957;50.824;4.360;2022-10-16T00:48:00;15.80;99.90
2391;DHT22;22957;50.824;4.360;2022-10-16T00:50:31;15.60;99.90
2391;DHT22;22957;50.824;4.360;2022-10-16T00:52:58;16.00;99.90
2391;DHT22;22957;50.824;4.360;2022-10-16T00:55:26;15.70;99.90
2391;DHT22;22957;50.824;4.360;2022-10-16T00:57:54;15.90;99.90
2391;DHT22;22957;50.824;4.360;2022-10-16T01:00:25;15.60;99.90
2391;DHT22;22957;50.824;4.360;2022-10-16T01:03:02;15.40;99.90
2391;DHT22;22957;50.824;4.360;2022-10-16T01:05:39;15.40;99.90
2391;DHT22;22957;50.824;4.360;2022-10-16T01:08:38;15.70;99.90
2391;DHT22;22957;50.824;4.360;2022-10-16T01:13:48;16.00;99.90
2391;DHT22;22957;50.824;4.360;2022-10-16T01:16:38;15.70;99.90
2391;DHT22;22957;50.824;4.360;2022-10-16T01:19:36;15.80;99.90
2391;DHT22;22957;50.824;4.360;2022-10-16T01:21:58;15.30;99.90
2391;DHT22;22957;50.824;4.360;2022-10-16T01:29:53;15.70;99.90
2391;DHT22;22957;50.824;4.360;2022-10-16T01:37:47;15.60;99.90
2391;DHT22;22957;50.824;4.360;2022-10-16T01:40:16;15.70;99.90
2391;DHT22;22957;50.824;4.360;2022-10-16T01:42:47;15.30;99.90
2391;DHT22;22957;50.824;4.360;2022-10-16T01:45:16;15.50;99.90
2391;DHT22;22957;50.824;4.360;2022-10-16T01:47:44;15.50;99.90
2391;DHT22;22957;50.824;4.360;2022-10-16T01:50:10;15.90;99.90
2391;DHT22;22957;50.824;4.360;2022-10-16T01:52:41;15.90;99.90
2391;DHT22;22957;50.824;4.360;2022-10-16T01:55:09;15.30;99.90
2391;DHT22;22957;50.824;4.360;2022-10-16T01:57:38;15.40;99.90
2391;DHT22;22957;50.824;4.360;2022-10-16T02:00:10;15.60;99.90
2391;DHT22;22957;50.824;4.360;2022-10-16T02:02:42;15.50;99.90
2391;DHT22;22957;50.824;4.360;2022-10-16T02:05:23;15.50;99.90
2391;DHT22;22957;50.824;4.360;2022-10-16T02:07:51;15.40;99.90
2391;DHT22;22957;50.824;4.360;2022-10-16T02:10:17;15.40;99.90
2391;DHT22;22957;50.824;4.360;2022-10-16T02:12:55;15.50;99.90
2391;DHT22;22957;50.824;4.360;2022-10-16T02:15:23;15.50;99.90
2391;DHT22;22957;50.824;4.360;2022-10-16T02:17:48;15.60;99.90
2391;DHT22;22957;50.824;4.360;2022-10-16T02:20:14;15.60;99.90
2391;DHT22;22957;50.824;4.360;2022-10-16T02:22:45;15.70;99.90
2391;DHT22;22957;50.824;4.360;2022-10-16T02:25:18;15.50;99.90
2391;DHT22;22957;50.824;4.360;2022-10-16T02:27:51;15.40;99.90
2391;DHT22;22957;50.824;4.360;2022-10-16T02:30:29;15.50;99.90
2391;DHT22;22957;50.824;4.360;2022-10-16T02:32:58;15.60;99.90
2391;DHT22;22957;50.824;4.360;2022-10-16T02:35:25;15.40;99.90
2391;DHT22;22957;50.824;4.360;2022-10-16T02:37:52;15.40;99.90
2391;DHT22;22957;50.824;4.360;2022-10-16T02:40:19;14.90;99.90
2391;DHT22;22957;50.824;4.360;2022-10-16T02:42:50;15.30;99.90
2391;DHT22;22957;50.824;4.360;2022-10-16T02:45:16;15.50;99.90
2391;DHT22;22957;50.824;4.360;2022-10-16T02:47:42;15.30;99.90
2391;DHT22;22957;50.824;4.360;2022-10-16T02:50:08;15.50;99.90
2391;DHT22;22957;50.824;4.360;2022-10-16T02:52:33;15.60;99.90
2391;DHT22;22957;50.824;4.360;2022-10-16T02:54:59;15.50;99.90
2391;DHT22;22957;50.824;4.360;2022-10-16T02:57:25;15.40;99.90
2391;DHT22;22957;50.824;4.360;2022-10-16T02:59:50;15.50;99.90
2391;DHT22;22957;50.824;4.360;2022-10-16T03:02:16;15.40;99.90
2391;DHT22;22957;50.824;4.360;2022-10-16T03:04:42;15.20;99.90
2391;DHT22;22957;50.824;4.360;2022-10-16T03:07:08;15.50;99.90
2391;DHT22;22957;50.824;4.360;2022-10-16T03:09:33;15.50;99.90
2391;DHT22;22957;50.824;4.360;2022-10-16T03:11:59;15.40;99.90
2391;DHT22;22957;50.824;4.360;2022-10-16T03:14:24;15.80;99.90
2391;DHT22;22957;50.824;4.360;2022-10-16T03:16:50;15.30;99.90
2391;DHT22;22957;50.824;4.360;2022-10-16T03:19:17;15.50;99.90
2391;DHT22;22957;50.824;4.360;2022-10-16T03:21:43;15.30;99.90
2391;DHT22;22957;50.824;4.360;2022-10-16T03:24:08;15.60;99.90
2391;DHT22;22957;50.824;4.360;2022-10-16T03:26:34;15.40;99.90
2391;DHT22;22957;50.824;4.360;2022-10-16T03:29:00;15.40;99.90
2391;DHT22;22957;50.824;4.360;2022-10-16T03:31:27;15.30;99.90
2391;DHT22;22957;50.824;4.360;2022-10-16T03:33:53;15.80;99.90
2391;DHT22;22957;50.824;4.360;2022-10-16T03:36:19;15.90;99.90
2391;DHT22;22957;50.824;4.360;2022-10-16T03:38:44;15.80;99.90
2391;DHT22;22957;50.824;4.360;2022-10-16T03:41:10;15.60;99.90
2391;DHT22;22957;50.824;4.360;2022-10-16T03:43:35;15.70;99.90
2391;DHT22;22957;50.824;4.360;2022-10-16T03:46:01;15.70;99.90
2391;DHT22;22957;50.824;4.360;2022-10-16T03:48:27;15.60;99.90
2391;DHT22;22957;50.824;4.360;2022-10-16T03:50:52;15.70;99.90
2391;DHT22;22957;50.824;4.360;2022-10-16T03:53:18;15.60;99.90
2391;DHT22;22957;50.824;4.360;2022-10-16T03:55:44;15.70;99.90
2391;DHT22;22957;50.824;4.360;2022-10-16T03:58:11;16.00;99.90
2391;DHT22;22957;50.824;4.360;2022-10-16T04:00:43;15.70;99.90
2391;DHT22;22957;50.824;4.360;2022-10-16T04:03:09;15.50;99.90
2391;DHT22;22957;50.824;4.360;2022-10-16T04:05:35;15.60;99.90
2391;DHT22;22957;50.824;4.360;2022-10-16T04:08:01;15.60;99.90
2391;DHT22;22957;50.824;4.360;2022-10-16T04:10:27;15.60;99.90
2391;DHT22;22957;50.824;4.360;2022-10-16T04:12:52;15.60;99.90
2391;DHT22;22957;50.824;4.360;2022-10-16T04:15:22;15.60;99.90
2391;DHT22;22957;50.824;4.360;2022-10-16T04:17:47;15.60;99.90
2391;DHT22;22957;50.824;4.360;2022-10-16T04:20:13;15.40;99.90
2391;DHT22;22957;50.824;4.360;2022-10-16T04:22:39;15.20;99.90
2391;DHT22;22957;50.824;4.360;2022-10-16T04:25:05;15.40;99.90
2391;DHT22;22957;50.824;4.360;2022-10-16T04:27:31;15.90;99.90
2391;DHT22;22957;50.824;4.360;2022-10-16T04:29:58;15.40;99.90
2391;DHT22;22957;50.824;4.360;2022-10-16T04:32:25;15.30;99.90
2391;DHT22;22957;50.824;4.360;2022-10-16T04:34:50;15.50;99.90
2391;DHT22;22957;50.824;4.360;2022-10-16T04:37:16;15.60;99.90
2391;DHT22;22957;50.824;4.360;2022-10-16T04:39:42;15.40;99.90
2391;DHT22;22957;50.824;4.360;2022-10-16T04:42:09;15.30;99.90
2391;DHT22;22957;50.824;4.360;2022-10-16T04:44:34;15.60;99.90
2391;DHT22;22957;50.824;4.360;2022-10-16T04:47:00;15.30;99.90
2391;DHT22;22957;50.824;4.360;2022-10-16T04:49:26;15.40;99.90
2391;DHT22;22957;50.824;4.360;2022-10-16T04:51:52;15.40;99.90
2391;DHT22;22957;50.824;4.360;2022-10-16T04:54:18;15.50;99.90
2391;DHT22;22957;50.824;4.360;2022-10-16T04:56:44;15.10;99.90
2391;DHT22;22957;50.824;4.360;2022-10-16T04:59:14;15.30;99.90
2391;DHT22;22957;50.824;4.360;2022-10-16T05:01:40;15.20;99.90
2391;DHT22;22957;50.824;4.360;2022-10-16T05:04:05;15.30;99.90
2391;DHT22;22957;50.824;4.360;2022-10-16T05:06:31;15.30;99.90
2391;DHT22;22957;50.824;4.360;2022-10-16T05:08:57;15.60;99.90
2391;DHT22;22957;50.824;4.360;2022-10-16T05:11:23;15.50;99.90
2391;DHT22;22957;50.824;4.360;2022-10-16T05:13:49;15.50;99.90
2391;DHT22;22957;50.824;4.360;2022-10-16T05:16:14;15.10;99.90
2391;DHT22;22957;50.824;4.360;2022-10-16T05:18:40;15.40;99.90
2391;DHT22;22957;50.824;4.360;2022-10-16T05:21:06;15.40;99.90
2391;DHT22;22957;50.824;4.360;2022-10-16T05:23:31;15.30;99.90
2391;DHT22;22957;50.824;4.360;2022-10-16T05:28:34;15.20;99.90
2391;DHT22;22957;50.824;4.360;2022-10-16T05:31:05;15.20;99.90
2391;DHT22;22957;50.824;4.360;2022-10-16T05:33:32;15.40;99.90
2391;DHT22;22957;50.824;4.360;2022-10-16T05:36:04;15.30;99.90
2391;DHT22;22957;50.824;4.360;2022-10-16T05:38:31;15.20;99.90
2391;DHT22;22957;50.824;4.360;2022-10-16T05:40:57;15.10;99.90
2391;DHT22;22957;50.824;4.360;2022-10-16T05:43:23;15.00;99.90
2391;DHT22;22957;50.824;4.360;2022-10-16T05:46:02;15.20;99.90
2391;DHT22;22957;50.824;4.360;2022-10-16T05:48:28;15.00;99.90
2391;DHT22;22957;50.824;4.360;2022-10-16T05:51:03;15.10;99.90
2391;DHT22;22957;50.824;4.360;2022-10-16T05:53:31;15.00;99.90
2391;DHT22;22957;50.824;4.360;2022-10-16T05:55:57;15.20;99.90
2391;DHT22;22957;50.824;4.360;2022-10-16T05:58:24;15.40;99.90
2391;DHT22;22957;50.824;4.360;2022-10-16T06:00:58;15.30;99.90
2391;DHT22;22957;50.824;4.360;2022-10-16T06:03:26;15.30;99.90
2391;DHT22;22957;50.824;4.360;2022-10-16T06:05:53;15.20;99.90
2391;DHT22;22957;50.824;4.360;2022-10-16T06:08:22;15.20;99.90
2391;DHT22;22957;50.824;4.360;2022-10-16T06:10:48;15.00;99.90
2391;DHT22;22957;50.824;4.360;2022-10-16T06:13:16;15.40;99.90
2391;DHT22;22957;50.824;4.360;2022-10-16T06:15:44;15.40;99.90
2391;DHT22;22957;50.824;4.360;2022-10-16T06:18:10;15.60;99.90
2391;DHT22;22957;50.824;4.360;2022-10-16T06:20:37;15.30;99.90
2391;DHT22;22957;50.824;4.360;2022-10-16T06:23:06;15.20;99.90
2391;DHT22;22957;50.824;4.360;2022-10-16T06:25:32;15.10;99.90
2391;DHT22;22957;50.824;4.360;2022-10-16T06:27:58;15.20;99.90
2391;DHT22;22957;50.824;4.360;2022-10-16T06:30:25;15.20;99.90
2391;DHT22;22957;50.824;4.360;2022-10-16T06:32:53;15.10;99.90
2391;DHT22;22957;50.824;4.360;2022-10-16T06:35:20;15.50;99.90
2391;DHT22;22957;50.824;4.360;2022-10-16T06:37:46;15.50;99.90
2391;DHT22;22957;50.824;4.360;2022-10-16T06:40:13;15.70;99.90
2391;DHT22;22957;50.824;4.360;2022-10-16T06:42:41;15.30;99.90
2391;DHT22;22957;50.824;4.360;2022-10-16T06:45:09;15.40;99.90
2391;DHT22;22957;50.824;4.360;2022-10-16T06:47:38;16.30;99.90
2391;DHT22;22957;50.824;4.360;2022-10-16T06:50:05;17.40;99.90
2391;DHT22;22957;50.824;4.360;2022-10-16T06:52:35;17.90;99.90
2391;DHT22;22957;50.824;4.360;2022-10-16T06:55:06;18.80;99.90
2391;DHT22;22957;50.824;4.360;2022-10-16T06:57:32;19.10;99.90
2391;DHT22;22957;50.824;4.360;2022-10-16T06:59:59;19.90;99.90
2391;DHT22;22957;50.824;4.360;2022-10-16T07:02:27;20.20;99.90
2391;DHT22;22957;50.824;4.360;2022-10-16T07:04:55;20.70;99.90
2391;DHT22;22957;50.824;4.360;2022-10-16T07:07:25;20.90;99.90
2391;DHT22;22957;50.824;4.360;2022-10-16T07:09:53;21.30;99.90
2391;DHT22;22957;50.824;4.360;2022-10-16T07:12:20;21.30;99.90
2391;DHT22;22957;50.824;4.360;2022-10-16T07:14:47;20.70;99.90
2391;DHT22;22957;50.824;4.360;2022-10-16T07:17:16;20.40;99.90
2391;DHT22;22957;50.824;4.360;2022-10-16T07:19:45;19.80;99.90
2391;DHT22;22957;50.824;4.360;2022-10-16T07:22:16;19.40;99.90
2391;DHT22;22957;50.824;4.360;2022-10-16T07:24:46;19.20;99.90
2391;DHT22;22957;50.824;4.360;2022-10-16T07:27:22;19.00;99.90
2391;DHT22;22957;50.824;4.360;2022-10-16T07:30:15;18.60;99.90
2391;DHT22;22957;50.824;4.360;2022-10-16T07:32:45;18.70;99.90
2391;DHT22;22957;50.824;4.360;2022-10-16T07:35:11;19.30;99.90
2391;DHT22;22957;50.824;4.360;2022-10-16T07:37:38;19.90;99.90
2391;DHT22;22957;50.824;4.360;2022-10-16T07:40:07;19.60;99.90
2391;DHT22;22957;50.824;4.360;2022-10-16T07:42:36;19.70;99.90
2391;DHT22;22957;50.824;4.360;2022-10-16T07:45:03;19.20;99.90
2391;DHT22;22957;50.824;4.360;2022-10-16T07:47:30;19.30;99.90
2391;DHT22;22957;50.824;4.360;2022-10-16T07:49:56;19.00;99.90
2391;DHT22;22957;50.824;4.360;2022-10-16T07:52:23;19.20;99.90
2391;DHT22;22957;50.824;4.360;2022-10-16T07:54:50;18.90;99.90
2391;DHT22;22957;50.824;4.360;2022-10-16T07:57:18;19.70;99.90
2391;DHT22;22957;50.824;4.360;2022-10-16T07:59:46;20.00;99.90
2391;DHT22;22957;50.824;4.360;2022-10-16T08:02:12;20.10;99.90
2391;DHT22;22957;50.824;4.360;2022-10-16T08:04:47;20.50;99.90
2391;DHT22;22957;50.824;4.360;2022-10-16T08:07:17;21.00;99.90
2391;DHT22;22957;50.824;4.360;2022-10-16T08:09:48;21.60;99.90
2391;DHT22;22957;50.824;4.360;2022-10-16T08:12:19;21.50;99.90
2391;DHT22;22957;50.824;4.360;2022-10-16T08:14:55;21.70;99.90
2391;DHT22;22957;50.824;4.360;2022-10-16T08:17:24;21.90;99.90
2391;DHT22;22957;50.824;4.360;2022-10-16T08:19:52;22.10;99.90
2391;DHT22;22957;50.824;4.360;2022-10-16T08:22:22;22.60;99.90
2391;DHT22;22957;50.824;4.360;2022-10-16T08:24:48;23.10;99.90
2391;DHT22;22957;50.824;4.360;2022-10-16T08:27:14;22.80;99.90
2391;DHT22;22957;50.824;4.360;2022-10-16T08:29:48;22.60;99.90
2391;DHT22;22957;50.824;4.360;2022-10-16T08:32:16;22.40;99.90
2391;DHT22;22957;50.824;4.360;2022-10-16T08:34:44;22.60;99.90
2391;DHT22;22957;50.824;4.360;2022-10-16T08:37:10;22.30;99.90
2391;DHT22;22957;50.824;4.360;2022-10-16T08:39:38;22.00;99.90
2391;DHT22;22957;50.824;4.360;2022-10-16T08:45:38;23.00;99.90
2391;DHT22;22957;50.824;4.360;2022-10-16T08:48:44;22.50;99.90
2391;DHT22;22957;50.824;4.360;2022-10-16T08:51:24;23.20;99.90
2391;DHT22;22957;50.824;4.360;2022-10-16T08:53:57;23.20;99.90
2391;DHT22;22957;50.824;4.360;2022-10-16T08:56:25;24.00;99.90
2391;DHT22;22957;50.824;4.360;2022-10-16T08:58:52;24.00;99.90
2391;DHT22;22957;50.824;4.360;2022-10-16T09:01:20;23.90;99.90
2391;DHT22;22957;50.824;4.360;2022-10-16T09:06:50;23.70;99.90
2391;DHT22;22957;50.824;4.360;2022-10-16T09:13:00;24.00;99.90
2391;DHT22;22957;50.824;4.360;2022-10-16T09:18:46;24.10;99.90
2391;DHT22;22957;50.824;4.360;2022-10-16T09:21:24;24.10;99.90
2391;DHT22;22957;50.824;4.360;2022-10-16T09:23:59;23.90;99.90
2391;DHT22;22957;50.824;4.360;2022-10-16T09:26:36;24.00;99.90
2391;DHT22;22957;50.824;4.360;2022-10-16T09:29:17;24.70;99.90
2391;DHT22;22957;50.824;4.360;2022-10-16T09:34:32;25.20;99.90
2391;DHT22;22957;50.824;4.360;2022-10-16T09:37:04;25.30;99.90
2391;DHT22;22957;50.824;4.360;2022-10-16T09:39:46;25.10;99.90
2391;DHT22;22957;50.824;4.360;2022-10-16T09:42:19;24.80;99.90
2391;DHT22;22957;50.824;4.360;2022-10-16T09:44:53;24.70;99.90
2391;DHT22;22957;50.824;4.360;2022-10-16T09:47:26;24.80;99.90
2391;DHT22;22957;50.824;4.360;2022-10-16T09:49:54;24.30;99.90
2391;DHT22;22957;50.824;4.360;2022-10-16T09:52:21;24.40;99.90
2391;DHT22;22957;50.824;4.360;2022-10-16T09:54:53;24.50;99.90
2391;DHT22;22957;50.824;4.360;2022-10-16T09:57:20;24.70;99.90
2391;DHT22;22957;50.824;4.360;2022-10-16T09:59:54;24.90;99.90
2391;DHT22;22957;50.824;4.360;2022-10-16T10:02:35;24.50;99.90
2391;DHT22;22957;50.824;4.360;2022-10-16T10:05:05;25.00;99.90
2391;DHT22;22957;50.824;4.360;2022-10-16T10:07:43;25.00;99.90
2391;DHT22;22957;50.824;4.360;2022-10-16T10:10:43;25.60;99.90
2391;DHT22;22957;50.824;4.360;2022-10-16T10:13:22;25.30;99.90
2391;DHT22;22957;50.824;4.360;2022-10-16T10:15:50;25.20;99.90
2391;DHT22;22957;50.824;4.360;2022-10-16T10:18:21;24.60;99.90
2391;DHT22;22957;50.824;4.360;2022-10-16T10:21:12;24.40;99.90
2391;DHT22;22957;50.824;4.360;2022-10-16T10:23:40;24.10;99.90
2391;DHT22;22957;50.824;4.360;2022-10-16T10:26:16;23.90;99.90
2391;DHT22;22957;50.824;4.360;2022-10-16T10:28:54;23.80;99.90
2391;DHT22;22957;50.824;4.360;2022-10-16T10:31:42;24.00;99.90
2391;DHT22;22957;50.824;4.360;2022-10-16T10:37:04;23.20;99.90
2391;DHT22;22957;50.824;4.360;2022-10-16T10:39:47;23.70;99.90
2391;DHT22;22957;50.824;4.360;2022-10-16T10:44:57;24.40;99.90
2391;DHT22;22957;50.824;4.360;2022-10-16T10:50:40;24.40;99.90
2391;DHT22;22957;50.824;4.360;2022-10-16T10:56:05;24.50;99.90
2391;DHT22;22957;50.824;4.360;2022-10-16T10:59:14;24.60;99.90
2391;DHT22;22957;50.824;4.360;2022-10-16T11:04:53;25.00;99.90
2391;DHT22;22957;50.824;4.360;2022-10-16T11:07:39;24.40;99.90
2391;DHT22;22957;50.824;4.360;2022-10-16T11:10:16;24.90;99.90
2391;DHT22;22957;50.824;4.360;2022-10-16T11:12:51;24.60;99.90
2391;DHT22;22957;50.824;4.360;2022-10-16T11:15:25;25.00;99.90
2391;DHT22;22957;50.824;4.360;2022-10-16T11:18:08;25.40;99.90
2391;DHT22;22957;50.824;4.360;2022-10-16T11:20:45;25.40;99.90
2391;DHT22;22957;50.824;4.360;2022-10-16T11:26:21;25.40;99.90
2391;DHT22;22957;50.824;4.360;2022-10-16T11:28:54;25.50;99.90
2391;DHT22;22957;50.824;4.360;2022-10-16T11:34:07;25.80;99.90
2391;DHT22;22957;50.824;4.360;2022-10-16T11:37:02;25.90;99.90
2391;DHT22;22957;50.824;4.360;2022-10-16T11:39:32;25.30;99.90
2391;DHT22;22957;50.824;4.360;2022-10-16T11:42:19;25.10;99.90
2391;DHT22;22957;50.824;4.360;2022-10-16T11:44:55;25.60;99.90
2391;DHT22;22957;50.824;4.360;2022-10-16T11:47:37;25.60;99.90
2391;DHT22;22957;50.824;4.360;2022-10-16T11:53:11;24.80;99.90
2391;DHT22;22957;50.824;4.360;2022-10-16T11:55:44;24.00;99.90
2391;DHT22;22957;50.824;4.360;2022-10-16T11:58:33;23.70;99.90
2391;DHT22;22957;50.824;4.360;2022-10-16T12:01:27;23.60;99.90
2391;DHT22;22957;50.824;4.360;2022-10-16T12:04:12;23.60;99.90
2391;DHT22;22957;50.824;4.360;2022-10-16T12:11:43;24.00;99.90
2391;DHT22;22957;50.824;4.360;2022-10-16T12:16:51;23.80;99.90
2391;DHT22;22957;50.824;4.360;2022-10-16T12:19:18;23.60;99.90
2391;DHT22;22957;50.824;4.360;2022-10-16T12:21:45;23.40;99.90
2391;DHT22;22957;50.824;4.360;2022-10-16T12:26:55;23.40;99.90
2391;DHT22;22957;50.824;4.360;2022-10-16T12:29:35;23.40;99.90
2391;DHT22;22957;50.824;4.360;2022-10-16T12:32:03;23.50;99.90
2391;DHT22;22957;50.824;4.360;2022-10-16T12:34:35;23.70;99.90
2391;DHT22;22957;50.824;4.360;2022-10-16T12:39:41;23.50;99.90
2391;DHT22;22957;50.824;4.360;2022-10-16T12:44:53;23.70;99.90
2391;DHT22;22957;50.824;4.360;2022-10-16T12:49:58;23.70;99.90
2391;DHT22;22957;50.824;4.360;2022-10-16T12:55:00;23.60;99.90
2391;DHT22;22957;50.824;4.360;2022-10-16T13:08:36;22.90;99.90
2391;DHT22;22957;50.824;4.360;2022-10-16T13:15:15;22.80;99.90
2391;DHT22;22957;50.824;4.360;2022-10-16T13:18:24;23.10;99.90
2391;DHT22;22957;50.824;4.360;2022-10-16T13:21:20;23.30;99.90
2391;DHT22;22957;50.824;4.360;2022-10-16T13:28:07;23.10;99.90
2391;DHT22;22957;50.824;4.360;2022-10-16T13:30:17;23.40;99.90
2391;DHT22;22957;50.824;4.360;2022-10-16T13:32:52;23.40;99.90
2391;DHT22;22957;50.824;4.360;2022-10-16T13:35:23;23.20;99.90
2391;DHT22;22957;50.824;4.360;2022-10-16T13:38:18;22.50;99.90
2391;DHT22;22957;50.824;4.360;2022-10-16T13:40:57;22.60;99.90
2391;DHT22;22957;50.824;4.360;2022-10-16T13:43:41;22.70;99.90
2391;DHT22;22957;50.824;4.360;2022-10-16T13:46:33;22.90;99.90
2391;DHT22;22957;50.824;4.360;2022-10-16T13:49:16;22.20;99.90
2391;DHT22;22957;50.824;4.360;2022-10-16T13:51:57;22.00;99.90
2391;DHT22;22957;50.824;4.360;2022-10-16T13:54:24;22.20;99.90
2391;DHT22;22957;50.824;4.360;2022-10-16T13:56:51;22.10;99.90
2391;DHT22;22957;50.824;4.360;2022-10-16T13:59:25;22.30;99.90
2391;DHT22;22957;50.824;4.360;2022-10-16T14:01:53;22.60;99.90
2391;DHT22;22957;50.824;4.360;2022-10-16T14:04:21;22.90;99.90
2391;DHT22;22957;50.824;4.360;2022-10-16T14:06:50;22.40;99.90
2391;DHT22;22957;50.824;4.360;2022-10-16T14:09:27;22.40;99.90
2391;DHT22;22957;50.824;4.360;2022-10-16T14:12:01;22.40;99.90
2391;DHT22;22957;50.824;4.360;2022-10-16T14:14:50;22.40;99.90
2391;DHT22;22957;50.824;4.360;2022-10-16T14:17:27;22.50;99.90
2391;DHT22;22957;50.824;4.360;2022-10-16T14:19:55;22.40;99.90
2391;DHT22;22957;50.824;4.360;2022-10-16T14:22:41;22.40;99.90
2391;DHT22;22957;50.824;4.360;2022-10-16T14:27:57;21.90;99.90
2391;DHT22;22957;50.824;4.360;2022-10-16T14:30:26;21.50;99.90
2391;DHT22;22957;50.824;4.360;2022-10-16T14:33:01;21.50;99.90
2391;DHT22;22957;50.824;4.360;2022-10-16T14:35:33;21.40;99.90
2391;DHT22;22957;50.824;4.360;2022-10-16T14:38:01;21.10;99.90
2391;DHT22;22957;50.824;4.360;2022-10-16T14:40:35;21.30;99.90
2391;DHT22;22957;50.824;4.360;2022-10-16T14:43:03;21.40;99.90
2391;DHT22;22957;50.824;4.360;2022-10-16T14:45:32;21.30;99.90
2391;DHT22;22957;50.824;4.360;2022-10-16T14:48:12;21.10;99.90
2391;DHT22;22957;50.824;4.360;2022-10-16T14:50:40;20.80;99.90
2391;DHT22;22957;50.824;4.360;2022-10-16T14:53:12;20.90;99.90
2391;DHT22;22957;50.824;4.360;2022-10-16T14:55:39;21.00;99.90
2391;DHT22;22957;50.824;4.360;2022-10-16T14:58:05;20.80;99.90
2391;DHT22;22957;50.824;4.360;2022-10-16T15:00:31;21.00;99.90
2391;DHT22;22957;50.824;4.360;2022-10-16T15:02:57;20.60;99.90
2391;DHT22;22957;50.824;4.360;2022-10-16T15:05:25;20.50;99.90
2391;DHT22;22957;50.824;4.360;2022-10-16T15:07:55;20.60;99.90
2391;DHT22;22957;50.824;4.360;2022-10-16T15:10:22;20.60;99.90
2391;DHT22;22957;50.824;4.360;2022-10-16T15:12:49;20.70;99.90
2391;DHT22;22957;50.824;4.360;2022-10-16T15:15:24;20.90;99.90
2391;DHT22;22957;50.824;4.360;2022-10-16T15:17:51;20.70;99.90
2391;DHT22;22957;50.824;4.360;2022-10-16T15:20:19;20.80;99.90
2391;DHT22;22957;50.824;4.360;2022-10-16T15:22:46;20.40;99.90
2391;DHT22;22957;50.824;4.360;2022-10-16T15:27:58;20.00;99.90
2391;DHT22;22957;50.824;4.360;2022-10-16T15:30:25;20.10;99.90
2391;DHT22;22957;50.824;4.360;2022-10-16T15:32:50;20.60;99.90
2391;DHT22;22957;50.824;4.360;2022-10-16T15:35:16;19.90;99.90
2391;DHT22;22957;50.824;4.360;2022-10-16T15:37:42;19.60;99.90
2391;DHT22;22957;50.824;4.360;2022-10-16T15:40:09;19.50;99.90
2391;DHT22;22957;50.824;4.360;2022-10-16T15:42:36;19.40;99.90
2391;DHT22;22957;50.824;4.360;2022-10-16T15:45:02;19.60;99.90
2391;DHT22;22957;50.824;4.360;2022-10-16T15:47:29;19.90;99.90
2391;DHT22;22957;50.824;4.360;2022-10-16T15:49:55;19.50;99.90
2391;DHT22;22957;50.824;4.360;2022-10-16T15:52:22;19.60;99.90
2391;DHT22;22957;50.824;4.360;2022-10-16T15:54:48;19.80;99.90
2391;DHT22;22957;50.824;4.360;2022-10-16T15:57:14;19.70;99.90
2391;DHT22;22957;50.824;4.360;2022-10-16T15:59:40;19.50;99.90
2391;DHT22;22957;50.824;4.360;2022-10-16T16:02:06;19.80;99.90
2391;DHT22;22957;50.824;4.360;2022-10-16T16:04:31;19.70;99.90
2391;DHT22;22957;50.824;4.360;2022-10-16T16:06:58;19.60;99.90
2391;DHT22;22957;50.824;4.360;2022-10-16T16:09:24;19.50;99.90
2391;DHT22;22957;50.824;4.360;2022-10-16T16:11:50;19.10;99.90
2391;DHT22;22957;50.824;4.360;2022-10-16T16:14:17;18.80;99.90
2391;DHT22;22957;50.824;4.360;2022-10-16T16:16:48;18.90;99.90
2391;DHT22;22957;50.824;4.360;2022-10-16T16:19:34;18.90;99.90
2391;DHT22;22957;50.824;4.360;2022-10-16T16:22:01;18.40;99.90
2391;DHT22;22957;50.824;4.360;2022-10-16T16:24:44;18.50;99.90
2391;DHT22;22957;50.824;4.360;2022-10-16T16:27:11;18.80;99.90
2391;DHT22;22957;50.824;4.360;2022-10-16T16:29:47;19.30;99.90
2391;DHT22;22957;50.824;4.360;2022-10-16T16:32:19;19.30;99.90
2391;DHT22;22957;50.824;4.360;2022-10-16T16:34:45;19.50;99.90
2391;DHT22;22957;50.824;4.360;2022-10-16T16:37:19;19.50;99.90
2391;DHT22;22957;50.824;4.360;2022-10-16T16:39:45;19.10;99.90
2391;DHT22;22957;50.824;4.360;2022-10-16T16:42:11;19.00;99.90
2391;DHT22;22957;50.824;4.360;2022-10-16T16:44:37;18.70;99.90
2391;DHT22;22957;50.824;4.360;2022-10-16T16:47:05;18.40;99.90
2391;DHT22;22957;50.824;4.360;2022-10-16T16:49:32;18.30;99.90
2391;DHT22;22957;50.824;4.360;2022-10-16T16:51:59;18.20;99.90
2391;DHT22;22957;50.824;4.360;2022-10-16T16:54:26;18.00;99.90
2391;DHT22;22957;50.824;4.360;2022-10-16T16:56:52;18.20;99.90
2391;DHT22;22957;50.824;4.360;2022-10-16T17:56:22;17.50;99.90
2391;DHT22;22957;50.824;4.360;2022-10-16T17:59:14;17.50;99.90
2391;DHT22;22957;50.824;4.360;2022-10-16T18:02:02;17.60;99.90
2391;DHT22;22957;50.824;4.360;2022-10-16T18:05:09;17.30;99.90
2391;DHT22;22957;50.824;4.360;2022-10-16T18:07:38;17.70;99.90
2391;DHT22;22957;50.824;4.360;2022-10-16T18:10:05;17.50;99.90
2391;DHT22;22957;50.824;4.360;2022-10-16T18:12:34;17.50;99.90
2391;DHT22;22957;50.824;4.360;2022-10-16T18:15:00;17.60;99.90
2391;DHT22;22957;50.824;4.360;2022-10-16T18:17:26;17.50;99.90
2391;DHT22;22957;50.824;4.360;2022-10-16T18:19:53;17.50;99.90
2391;DHT22;22957;50.824;4.360;2022-10-16T18:22:19;17.40;99.90
2391;DHT22;22957;50.824;4.360;2022-10-16T18:24:46;17.50;99.90
2391;DHT22;22957;50.824;4.360;2022-10-16T18:27:13;17.50;99.90
2391;DHT22;22957;50.824;4.360;2022-10-16T18:29:41;17.70;99.90
2391;DHT22;22957;50.824;4.360;2022-10-16T18:32:40;17.50;99.90
2391;DHT22;22957;50.824;4.360;2022-10-16T19:45:05;17.30;99.90
2391;DHT22;22957;50.824;4.360;2022-10-16T19:48:12;17.00;99.90
2391;DHT22;22957;50.824;4.360;2022-10-16T20:24:36;16.10;99.90
2391;DHT22;22957;50.824;4.360;2022-10-16T20:27:50;16.10;99.90
2391;DHT22;22957;50.824;4.360;2022-10-16T20:30:26;16.10;99.90